sensor_id;sensor_type;location;lat;lon;timestamp;pressure;altitude;pressure_sealevel;temperature
31528;BMP280;10206;48.012;10.030;2022-07-23T00:01:27;95186.56;;;23.99
31528;BMP280;10206;48.012;10.030;2022-07-23T00:03:55;95177.63;;;24.02
31528;BMP280;10206;48.012;10.030;2022-07-23T00:06:22;95166.53;;;24.04
31528;BMP280;10206;48.012;10.030;2022-07-23T00:08:48;95163.72;;;24.28
31528;BMP280;10206;48.012;10.030;2022-07-23T00:11:14;95163.56;;;24.47
31528;BMP280;10206;48.012;10.030;2022-07-23T00:13:40;95163.13;;;24.31
31528;BMP280;10206;48.012;10.030;2022-07-23T00:16:07;95156.84;;;24.07
31528;BMP280;10206;48.012;10.030;2022-07-23T00:18:33;95126.13;;;24.05
31528;BMP280;10206;48.012;10.030;2022-07-23T00:20:59;95091.81;;;23.75
31528;BMP280;10206;48.012;10.030;2022-07-23T00:23:25;95070.44;;;23.13
31528;BMP280;10206;48.012;10.030;2022-07-23T00:25:53;95044.69;;;23.12
31528;BMP280;10206;48.012;10.030;2022-07-23T00:28:19;95009.25;;;23.15
31528;BMP280;10206;48.012;10.030;2022-07-23T00:30:45;95010.44;;;23.08
31528;BMP280;10206;48.012;10.030;2022-07-23T00:33:11;95012.03;;;23.15
31528;BMP280;10206;48.012;10.030;2022-07-23T00:35:39;95018.88;;;23.10
31528;BMP280;10206;48.012;10.030;2022-07-23T00:38:10;95012.38;;;23.25
31528;BMP280;10206;48.012;10.030;2022-07-23T00:40:37;95024.09;;;23.21
31528;BMP280;10206;48.012;10.030;2022-07-23T00:43:04;95032.59;;;23.04
31528;BMP280;10206;48.012;10.030;2022-07-23T00:45:30;95046.97;;;22.75
31528;BMP280;10206;48.012;10.030;2022-07-23T00:47:57;95051.63;;;22.90
31528;BMP280;10206;48.012;10.030;2022-07-23T00:50:23;95068.53;;;22.96
31528;BMP280;10206;48.012;10.030;2022-07-23T00:52:49;95076.28;;;22.99
31528;BMP280;10206;48.012;10.030;2022-07-23T00:55:16;95094.78;;;23.12
31528;BMP280;10206;48.012;10.030;2022-07-23T00:57:42;95104.47;;;23.11
31528;BMP280;10206;48.012;10.030;2022-07-23T01:00:14;95107.53;;;22.98
31528;BMP280;10206;48.012;10.030;2022-07-23T01:02:40;95110.78;;;23.12
31528;BMP280;10206;48.012;10.030;2022-07-23T01:05:08;95109.09;;;22.81
31528;BMP280;10206;48.012;10.030;2022-07-23T01:07:34;95117.56;;;22.85
31528;BMP280;10206;48.012;10.030;2022-07-23T01:10:01;95114.06;;;22.85
31528;BMP280;10206;48.012;10.030;2022-07-23T01:12:27;95116.72;;;22.81
31528;BMP280;10206;48.012;10.030;2022-07-23T01:14:57;95115.28;;;22.80
31528;BMP280;10206;48.012;10.030;2022-07-23T01:17:23;95118.03;;;22.99
31528;BMP280;10206;48.012;10.030;2022-07-23T01:19:50;95115.56;;;22.88
31528;BMP280;10206;48.012;10.030;2022-07-23T01:22:18;95115.09;;;22.74
31528;BMP280;10206;48.012;10.030;2022-07-23T01:24:45;95117.31;;;22.57
31528;BMP280;10206;48.012;10.030;2022-07-23T01:27:11;95121.59;;;22.60
31528;BMP280;10206;48.012;10.030;2022-07-23T01:29:38;95120.72;;;22.76
31528;BMP280;10206;48.012;10.030;2022-07-23T01:32:06;95107.88;;;22.67
31528;BMP280;10206;48.012;10.030;2022-07-23T01:34:32;95092.09;;;22.51
31528;BMP280;10206;48.012;10.030;2022-07-23T01:36:58;95081.91;;;21.99
31528;BMP280;10206;48.012;10.030;2022-07-23T01:39:24;95061.03;;;21.98
31528;BMP280;10206;48.012;10.030;2022-07-23T01:41:50;95027.22;;;22.25
31528;BMP280;10206;48.012;10.030;2022-07-23T01:44:16;94981.50;;;22.09
31528;BMP280;10206;48.012;10.030;2022-07-23T01:46:42;94966.16;;;21.86
31528;BMP280;10206;48.012;10.030;2022-07-23T01:49:09;94979.88;;;21.63
31528;BMP280;10206;48.012;10.030;2022-07-23T01:51:35;95005.03;;;21.67
31528;BMP280;10206;48.012;10.030;2022-07-23T01:54:01;94991.72;;;21.26
31528;BMP280;10206;48.012;10.030;2022-07-23T01:56:27;94986.59;;;21.75
31528;BMP280;10206;48.012;10.030;2022-07-23T01:58:53;94974.09;;;21.76
31528;BMP280;10206;48.012;10.030;2022-07-23T02:01:19;94981.69;;;21.74
31528;BMP280;10206;48.012;10.030;2022-07-23T02:03:45;95000.22;;;21.49
31528;BMP280;10206;48.012;10.030;2022-07-23T02:06:11;95004.03;;;21.40
31528;BMP280;10206;48.012;10.030;2022-07-23T02:08:37;95000.59;;;21.79
31528;BMP280;10206;48.012;10.030;2022-07-23T02:11:04;94996.31;;;21.57
31528;BMP280;10206;48.012;10.030;2022-07-23T02:13:30;94996.28;;;21.74
31528;BMP280;10206;48.012;10.030;2022-07-23T02:15:56;94993.97;;;21.49
31528;BMP280;10206;48.012;10.030;2022-07-23T02:18:22;94991.47;;;21.57
31528;BMP280;10206;48.012;10.030;2022-07-23T02:20:48;94971.75;;;21.49
31528;BMP280;10206;48.012;10.030;2022-07-23T02:23:14;94995.91;;;21.84
31528;BMP280;10206;48.012;10.030;2022-07-23T02:25:40;94995.34;;;21.87
31528;BMP280;10206;48.012;10.030;2022-07-23T02:28:06;94995.41;;;21.70
31528;BMP280;10206;48.012;10.030;2022-07-23T02:30:32;95003.47;;;21.81
31528;BMP280;10206;48.012;10.030;2022-07-23T02:32:59;95001.13;;;21.74
31528;BMP280;10206;48.012;10.030;2022-07-23T02:35:25;95010.19;;;21.57
31528;BMP280;10206;48.012;10.030;2022-07-23T02:37:51;95012.13;;;21.52
31528;BMP280;10206;48.012;10.030;2022-07-23T02:40:18;95016.03;;;21.45
31528;BMP280;10206;48.012;10.030;2022-07-23T02:42:44;95006.50;;;21.50
31528;BMP280;10206;48.012;10.030;2022-07-23T02:45:10;94991.19;;;21.88
31528;BMP280;10206;48.012;10.030;2022-07-23T02:47:36;94979.66;;;21.76
31528;BMP280;10206;48.012;10.030;2022-07-23T02:50:03;94983.31;;;21.81
31528;BMP280;10206;48.012;10.030;2022-07-23T02:52:31;94967.06;;;21.73
31528;BMP280;10206;48.012;10.030;2022-07-23T02:54:57;94977.56;;;21.75
31528;BMP280;10206;48.012;10.030;2022-07-23T02:57:23;94970.84;;;21.62
31528;BMP280;10206;48.012;10.030;2022-07-23T02:59:49;94967.81;;;21.56
31528;BMP280;10206;48.012;10.030;2022-07-23T03:02:15;94962.00;;;21.48
31528;BMP280;10206;48.012;10.030;2022-07-23T03:04:41;94969.91;;;21.56
31528;BMP280;10206;48.012;10.030;2022-07-23T03:07:08;94998.94;;;21.33
31528;BMP280;10206;48.012;10.030;2022-07-23T03:09:34;95012.84;;;21.72
31528;BMP280;10206;48.012;10.030;2022-07-23T03:12:00;95016.22;;;21.69
31528;BMP280;10206;48.012;10.030;2022-07-23T03:14:26;95007.59;;;21.80
31528;BMP280;10206;48.012;10.030;2022-07-23T03:16:53;95014.84;;;21.70
31528;BMP280;10206;48.012;10.030;2022-07-23T03:19:20;94995.00;;;21.77
31528;BMP280;10206;48.012;10.030;2022-07-23T03:21:46;94985.75;;;21.90
31528;BMP280;10206;48.012;10.030;2022-07-23T03:24:12;94977.41;;;21.90
31528;BMP280;10206;48.012;10.030;2022-07-23T03:26:38;94977.19;;;21.65
31528;BMP280;10206;48.012;10.030;2022-07-23T03:29:05;94981.94;;;21.82
31528;BMP280;10206;48.012;10.030;2022-07-23T03:31:31;94978.53;;;21.83
31528;BMP280;10206;48.012;10.030;2022-07-23T03:33:58;94967.13;;;21.95
31528;BMP280;10206;48.012;10.030;2022-07-23T03:36:25;94960.03;;;21.90
31528;BMP280;10206;48.012;10.030;2022-07-23T03:38:51;94944.69;;;21.89
31528;BMP280;10206;48.012;10.030;2022-07-23T03:41:18;94918.84;;;21.84
31528;BMP280;10206;48.012;10.030;2022-07-23T03:43:44;94915.06;;;21.56
31528;BMP280;10206;48.012;10.030;2022-07-23T03:46:11;94926.28;;;21.78
31528;BMP280;10206;48.012;10.030;2022-07-23T03:48:37;94924.94;;;21.59
31528;BMP280;10206;48.012;10.030;2022-07-23T03:51:03;94938.41;;;21.88
31528;BMP280;10206;48.012;10.030;2022-07-23T03:53:30;94947.56;;;21.71
31528;BMP280;10206;48.012;10.030;2022-07-23T03:55:56;94949.63;;;21.90
31528;BMP280;10206;48.012;10.030;2022-07-23T03:58:22;94964.03;;;21.85
31528;BMP280;10206;48.012;10.030;2022-07-23T04:00:48;94978.03;;;22.08
31528;BMP280;10206;48.012;10.030;2022-07-23T04:03:14;95012.81;;;22.09
31528;BMP280;10206;48.012;10.030;2022-07-23T04:05:40;95044.78;;;21.91
31528;BMP280;10206;48.012;10.030;2022-07-23T04:08:06;95079.09;;;21.80
31528;BMP280;10206;48.012;10.030;2022-07-23T04:10:33;95072.00;;;21.75
31528;BMP280;10206;48.012;10.030;2022-07-23T04:12:59;95044.50;;;21.83
31528;BMP280;10206;48.012;10.030;2022-07-23T04:15:25;94998.34;;;21.93
31528;BMP280;10206;48.012;10.030;2022-07-23T04:17:51;94988.22;;;21.82
31528;BMP280;10206;48.012;10.030;2022-07-23T04:20:17;94989.88;;;21.89
31528;BMP280;10206;48.012;10.030;2022-07-23T04:22:43;94973.50;;;21.97
31528;BMP280;10206;48.012;10.030;2022-07-23T04:25:09;94948.53;;;21.99
31528;BMP280;10206;48.012;10.030;2022-07-23T04:27:35;94933.22;;;21.98
31528;BMP280;10206;48.012;10.030;2022-07-23T04:30:02;94924.47;;;21.86
31528;BMP280;10206;48.012;10.030;2022-07-23T04:32:28;94931.69;;;21.74
31528;BMP280;10206;48.012;10.030;2022-07-23T04:34:54;94932.44;;;21.76
31528;BMP280;10206;48.012;10.030;2022-07-23T04:37:20;94930.94;;;21.93
31528;BMP280;10206;48.012;10.030;2022-07-23T04:39:46;94923.63;;;21.82
31528;BMP280;10206;48.012;10.030;2022-07-23T04:42:12;94942.78;;;21.54
31528;BMP280;10206;48.012;10.030;2022-07-23T04:44:38;94950.59;;;21.79
31528;BMP280;10206;48.012;10.030;2022-07-23T04:47:04;94962.16;;;21.91
31528;BMP280;10206;48.012;10.030;2022-07-23T04:49:31;94989.72;;;21.85
31528;BMP280;10206;48.012;10.030;2022-07-23T04:51:57;95005.34;;;21.94
31528;BMP280;10206;48.012;10.030;2022-07-23T04:54:23;95031.72;;;21.76
31528;BMP280;10206;48.012;10.030;2022-07-23T04:56:49;95036.91;;;21.66
31528;BMP280;10206;48.012;10.030;2022-07-23T04:59:15;95066.84;;;21.87
31528;BMP280;10206;48.012;10.030;2022-07-23T05:01:41;95088.94;;;21.83
31528;BMP280;10206;48.012;10.030;2022-07-23T05:04:07;95094.47;;;21.63
31528;BMP280;10206;48.012;10.030;2022-07-23T05:06:33;95080.03;;;21.49
31528;BMP280;10206;48.012;10.030;2022-07-23T05:09:00;95087.78;;;21.70
31528;BMP280;10206;48.012;10.030;2022-07-23T05:11:26;95079.28;;;21.66
31528;BMP280;10206;48.012;10.030;2022-07-23T05:13:52;95051.38;;;21.82
31528;BMP280;10206;48.012;10.030;2022-07-23T05:16:18;95033.91;;;21.97
31528;BMP280;10206;48.012;10.030;2022-07-23T05:18:44;95030.94;;;21.73
31528;BMP280;10206;48.012;10.030;2022-07-23T05:21:10;95037.88;;;21.35
31528;BMP280;10206;48.012;10.030;2022-07-23T05:23:36;95040.78;;;21.39
31528;BMP280;10206;48.012;10.030;2022-07-23T05:26:02;95051.31;;;21.80
31528;BMP280;10206;48.012;10.030;2022-07-23T05:28:28;95061.94;;;21.85
31528;BMP280;10206;48.012;10.030;2022-07-23T05:30:55;95072.41;;;21.87
31528;BMP280;10206;48.012;10.030;2022-07-23T05:33:21;95083.13;;;21.94
31528;BMP280;10206;48.012;10.030;2022-07-23T05:35:47;95075.38;;;21.73
31528;BMP280;10206;48.012;10.030;2022-07-23T05:38:13;95101.09;;;21.74
31528;BMP280;10206;48.012;10.030;2022-07-23T05:40:39;95106.31;;;21.83
31528;BMP280;10206;48.012;10.030;2022-07-23T05:43:05;95099.09;;;21.76
31528;BMP280;10206;48.012;10.030;2022-07-23T05:45:31;95103.63;;;21.68
31528;BMP280;10206;48.012;10.030;2022-07-23T05:47:58;95102.84;;;21.83
31528;BMP280;10206;48.012;10.030;2022-07-23T05:50:24;95102.97;;;21.87
31528;BMP280;10206;48.012;10.030;2022-07-23T05:52:50;95095.03;;;21.79
31528;BMP280;10206;48.012;10.030;2022-07-23T05:55:16;95085.38;;;21.80
31528;BMP280;10206;48.012;10.030;2022-07-23T05:57:42;95085.16;;;21.74
31528;BMP280;10206;48.012;10.030;2022-07-23T06:00:09;95080.47;;;21.79
31528;BMP280;10206;48.012;10.030;2022-07-23T06:02:38;95060.66;;;21.88
31528;BMP280;10206;48.012;10.030;2022-07-23T06:05:05;95059.63;;;21.97
31528;BMP280;10206;48.012;10.030;2022-07-23T06:07:31;95063.53;;;21.90
31528;BMP280;10206;48.012;10.030;2022-07-23T06:09:57;95062.88;;;21.92
31528;BMP280;10206;48.012;10.030;2022-07-23T06:12:23;95050.88;;;21.68
31528;BMP280;10206;48.012;10.030;2022-07-23T06:14:50;95068.19;;;21.66
31528;BMP280;10206;48.012;10.030;2022-07-23T06:17:18;95081.75;;;22.15
31528;BMP280;10206;48.012;10.030;2022-07-23T06:19:44;95067.84;;;21.95
31528;BMP280;10206;48.012;10.030;2022-07-23T06:22:10;95041.38;;;22.12
31528;BMP280;10206;48.012;10.030;2022-07-23T06:24:36;95010.59;;;22.06
31528;BMP280;10206;48.012;10.030;2022-07-23T06:27:03;95034.03;;;22.01
31528;BMP280;10206;48.012;10.030;2022-07-23T06:29:29;95053.63;;;22.05
31528;BMP280;10206;48.012;10.030;2022-07-23T06:31:55;95051.19;;;21.95
31528;BMP280;10206;48.012;10.030;2022-07-23T06:34:21;95064.88;;;22.09
31528;BMP280;10206;48.012;10.030;2022-07-23T06:36:47;95059.19;;;22.05
31528;BMP280;10206;48.012;10.030;2022-07-23T06:39:13;95048.97;;;22.11
31528;BMP280;10206;48.012;10.030;2022-07-23T06:41:40;95035.91;;;21.94
31528;BMP280;10206;48.012;10.030;2022-07-23T06:44:06;95031.69;;;22.13
31528;BMP280;10206;48.012;10.030;2022-07-23T06:46:32;94998.28;;;21.91
31528;BMP280;10206;48.012;10.030;2022-07-23T06:48:58;94985.88;;;21.55
31528;BMP280;10206;48.012;10.030;2022-07-23T06:51:24;94974.53;;;21.88
31528;BMP280;10206;48.012;10.030;2022-07-23T06:53:50;94963.28;;;22.04
31528;BMP280;10206;48.012;10.030;2022-07-23T06:56:16;95010.69;;;22.29
31528;BMP280;10206;48.012;10.030;2022-07-23T06:58:43;95002.72;;;22.39
31528;BMP280;10206;48.012;10.030;2022-07-23T07:01:09;94993.84;;;22.23
31528;BMP280;10206;48.012;10.030;2022-07-23T07:03:35;95009.81;;;22.44
31528;BMP280;10206;48.012;10.030;2022-07-23T07:06:01;95011.72;;;23.05
31528;BMP280;10206;48.012;10.030;2022-07-23T07:08:31;95022.13;;;23.26
31528;BMP280;10206;48.012;10.030;2022-07-23T07:10:57;95029.53;;;23.64
31528;BMP280;10206;48.012;10.030;2022-07-23T07:13:23;95029.84;;;23.76
31528;BMP280;10206;48.012;10.030;2022-07-23T07:15:49;95048.97;;;24.39
31528;BMP280;10206;48.012;10.030;2022-07-23T07:18:15;95045.88;;;24.84
31528;BMP280;10206;48.012;10.030;2022-07-23T07:20:42;95043.94;;;24.89
31528;BMP280;10206;48.012;10.030;2022-07-23T07:23:08;95043.00;;;25.10
31528;BMP280;10206;48.012;10.030;2022-07-23T07:25:34;95051.09;;;24.98
31528;BMP280;10206;48.012;10.030;2022-07-23T07:28:00;95053.81;;;25.26
31528;BMP280;10206;48.012;10.030;2022-07-23T07:30:26;95054.53;;;25.26
31528;BMP280;10206;48.012;10.030;2022-07-23T07:32:52;95061.78;;;25.71
31528;BMP280;10206;48.012;10.030;2022-07-23T07:35:19;95061.06;;;25.37
31528;BMP280;10206;48.012;10.030;2022-07-23T07:37:45;95066.16;;;25.46
31528;BMP280;10206;48.012;10.030;2022-07-23T07:40:11;95071.34;;;25.62
31528;BMP280;10206;48.012;10.030;2022-07-23T07:42:51;95078.84;;;25.51
31528;BMP280;10206;48.012;10.030;2022-07-23T07:45:19;95081.34;;;25.39
31528;BMP280;10206;48.012;10.030;2022-07-23T07:47:45;95083.25;;;25.29
31528;BMP280;10206;48.012;10.030;2022-07-23T07:50:11;95085.78;;;25.19
31528;BMP280;10206;48.012;10.030;2022-07-23T07:52:37;95089.91;;;25.16
31528;BMP280;10206;48.012;10.030;2022-07-23T07:55:05;95077.00;;;25.00
31528;BMP280;10206;48.012;10.030;2022-07-23T07:57:32;95095.50;;;24.86
31528;BMP280;10206;48.012;10.030;2022-07-23T07:59:58;95097.13;;;24.67
31528;BMP280;10206;48.012;10.030;2022-07-23T08:02:25;95102.38;;;25.10
31528;BMP280;10206;48.012;10.030;2022-07-23T08:04:51;95108.66;;;25.41
31528;BMP280;10206;48.012;10.030;2022-07-23T08:07:18;95112.53;;;26.28
31528;BMP280;10206;48.012;10.030;2022-07-23T08:09:44;95101.28;;;26.64
31528;BMP280;10206;48.012;10.030;2022-07-23T08:12:10;95108.47;;;26.75
31528;BMP280;10206;48.012;10.030;2022-07-23T08:14:36;95113.34;;;27.16
31528;BMP280;10206;48.012;10.030;2022-07-23T08:17:03;95109.94;;;27.22
31528;BMP280;10206;48.012;10.030;2022-07-23T08:19:29;95107.69;;;27.12
31528;BMP280;10206;48.012;10.030;2022-07-23T08:21:55;95111.75;;;27.03
31528;BMP280;10206;48.012;10.030;2022-07-23T08:24:21;95113.47;;;26.81
31528;BMP280;10206;48.012;10.030;2022-07-23T08:26:47;95117.13;;;26.89
31528;BMP280;10206;48.012;10.030;2022-07-23T08:29:13;95125.34;;;27.21
31528;BMP280;10206;48.012;10.030;2022-07-23T08:31:39;95121.22;;;27.28
31528;BMP280;10206;48.012;10.030;2022-07-23T08:34:06;95120.44;;;26.78
31528;BMP280;10206;48.012;10.030;2022-07-23T08:36:32;95128.84;;;27.21
31528;BMP280;10206;48.012;10.030;2022-07-23T08:38:59;95130.31;;;27.26
31528;BMP280;10206;48.012;10.030;2022-07-23T08:41:25;95128.94;;;27.29
31528;BMP280;10206;48.012;10.030;2022-07-23T08:43:51;95124.84;;;27.36
31528;BMP280;10206;48.012;10.030;2022-07-23T08:46:19;95125.59;;;27.39
31528;BMP280;10206;48.012;10.030;2022-07-23T08:48:48;95126.22;;;27.33
31528;BMP280;10206;48.012;10.030;2022-07-23T08:51:14;95140.78;;;27.24
31528;BMP280;10206;48.012;10.030;2022-07-23T08:53:41;95135.84;;;27.22
31528;BMP280;10206;48.012;10.030;2022-07-23T08:56:09;95126.88;;;27.32
31528;BMP280;10206;48.012;10.030;2022-07-23T08:58:35;95127.28;;;27.12
31528;BMP280;10206;48.012;10.030;2022-07-23T09:01:02;95132.53;;;27.36
31528;BMP280;10206;48.012;10.030;2022-07-23T09:03:36;95136.97;;;27.51
31528;BMP280;10206;48.012;10.030;2022-07-23T09:06:02;95142.00;;;27.60
31528;BMP280;10206;48.012;10.030;2022-07-23T09:08:45;95147.19;;;27.30
31528;BMP280;10206;48.012;10.030;2022-07-23T09:11:18;95138.38;;;27.04
31528;BMP280;10206;48.012;10.030;2022-07-23T09:13:51;95139.41;;;26.83
31528;BMP280;10206;48.012;10.030;2022-07-23T09:16:32;95140.44;;;27.04
31528;BMP280;10206;48.012;10.030;2022-07-23T09:19:03;95145.44;;;26.28
31528;BMP280;10206;48.012;10.030;2022-07-23T09:21:34;95138.41;;;26.27
31528;BMP280;10206;48.012;10.030;2022-07-23T09:24:13;95148.28;;;26.30
31528;BMP280;10206;48.012;10.030;2022-07-23T09:26:45;95146.97;;;26.01
31528;BMP280;10206;48.012;10.030;2022-07-23T09:29:24;95142.63;;;26.28
31528;BMP280;10206;48.012;10.030;2022-07-23T09:32:01;95141.72;;;26.17
31528;BMP280;10206;48.012;10.030;2022-07-23T09:34:35;95138.47;;;25.95
31528;BMP280;10206;48.012;10.030;2022-07-23T09:37:13;95133.16;;;26.09
31528;BMP280;10206;48.012;10.030;2022-07-23T09:39:40;95135.94;;;26.09
31528;BMP280;10206;48.012;10.030;2022-07-23T09:42:36;95132.31;;;26.01
31528;BMP280;10206;48.012;10.030;2022-07-23T09:45:02;95128.13;;;26.02
31528;BMP280;10206;48.012;10.030;2022-07-23T09:47:30;95127.34;;;25.99
31528;BMP280;10206;48.012;10.030;2022-07-23T09:50:05;95118.22;;;25.97
31528;BMP280;10206;48.012;10.030;2022-07-23T09:52:48;95112.00;;;26.00
31528;BMP280;10206;48.012;10.030;2022-07-23T09:55:16;95125.59;;;26.16
31528;BMP280;10206;48.012;10.030;2022-07-23T09:57:42;95127.78;;;26.59
31528;BMP280;10206;48.012;10.030;2022-07-23T10:00:11;95127.84;;;26.61
31528;BMP280;10206;48.012;10.030;2022-07-23T10:02:38;95131.00;;;26.83
31528;BMP280;10206;48.012;10.030;2022-07-23T10:05:05;95138.28;;;26.98
31528;BMP280;10206;48.012;10.030;2022-07-23T10:07:34;95134.84;;;27.04
31528;BMP280;10206;48.012;10.030;2022-07-23T10:10:03;95132.13;;;27.08
31528;BMP280;10206;48.012;10.030;2022-07-23T10:12:30;95138.91;;;27.92
31528;BMP280;10206;48.012;10.030;2022-07-23T10:15:06;95141.69;;;28.52
31528;BMP280;10206;48.012;10.030;2022-07-23T10:17:33;95131.72;;;28.39
31528;BMP280;10206;48.012;10.030;2022-07-23T10:20:00;95124.78;;;28.46
31528;BMP280;10206;48.012;10.030;2022-07-23T10:22:29;95130.28;;;29.13
31528;BMP280;10206;48.012;10.030;2022-07-23T10:34:14;95147.50;;;28.72
31528;BMP280;10206;48.012;10.030;2022-07-23T10:37:34;95143.78;;;29.41
31528;BMP280;10206;48.012;10.030;2022-07-23T10:39:35;95132.53;;;29.41
31528;BMP280;10206;48.012;10.030;2022-07-23T10:42:15;95140.59;;;30.07
31528;BMP280;10206;48.012;10.030;2022-07-23T10:44:46;95139.41;;;29.18
31528;BMP280;10206;48.012;10.030;2022-07-23T10:47:26;95139.66;;;29.58
31528;BMP280;10206;48.012;10.030;2022-07-23T10:50:24;95148.13;;;29.64
31528;BMP280;10206;48.012;10.030;2022-07-23T10:58:00;95129.16;;;28.65
31528;BMP280;10206;48.012;10.030;2022-07-23T11:00:29;95135.19;;;28.35
31528;BMP280;10206;48.012;10.030;2022-07-23T11:02:57;95134.66;;;28.53
31528;BMP280;10206;48.012;10.030;2022-07-23T11:05:41;95133.00;;;28.26
31528;BMP280;10206;48.012;10.030;2022-07-23T11:13:38;95139.19;;;27.60
31528;BMP280;10206;48.012;10.030;2022-07-23T11:24:12;95128.53;;;27.01
31528;BMP280;10206;48.012;10.030;2022-07-23T11:26:43;95135.38;;;26.92
31528;BMP280;10206;48.012;10.030;2022-07-23T11:31:58;95136.69;;;26.87
31528;BMP280;10206;48.012;10.030;2022-07-23T11:34:32;95137.13;;;26.34
31528;BMP280;10206;48.012;10.030;2022-07-23T11:36:59;95143.75;;;27.38
31528;BMP280;10206;48.012;10.030;2022-07-23T11:39:28;95122.94;;;28.04
31528;BMP280;10206;48.012;10.030;2022-07-23T11:41:55;95113.03;;;27.99
31528;BMP280;10206;48.012;10.030;2022-07-23T11:47:05;95117.53;;;28.23
31528;BMP280;10206;48.012;10.030;2022-07-23T11:49:32;95117.75;;;28.47
31528;BMP280;10206;48.012;10.030;2022-07-23T11:52:12;95128.47;;;28.66
31528;BMP280;10206;48.012;10.030;2022-07-23T11:54:53;95126.28;;;28.57
31528;BMP280;10206;48.012;10.030;2022-07-23T11:57:25;95104.81;;;28.95
31528;BMP280;10206;48.012;10.030;2022-07-23T11:59:55;95102.72;;;28.16
31528;BMP280;10206;48.012;10.030;2022-07-23T12:02:21;95100.16;;;28.40
31528;BMP280;10206;48.012;10.030;2022-07-23T12:04:50;95099.94;;;28.20
31528;BMP280;10206;48.012;10.030;2022-07-23T12:09:49;95105.19;;;27.86
31528;BMP280;10206;48.012;10.030;2022-07-23T12:12:15;95104.13;;;28.17
31528;BMP280;10206;48.012;10.030;2022-07-23T12:14:58;95096.41;;;28.16
31528;BMP280;10206;48.012;10.030;2022-07-23T12:17:33;95104.94;;;28.26
31528;BMP280;10206;48.012;10.030;2022-07-23T12:20:00;95110.38;;;28.09
31528;BMP280;10206;48.012;10.030;2022-07-23T12:22:38;95112.41;;;28.05
31528;BMP280;10206;48.012;10.030;2022-07-23T12:25:13;95108.38;;;28.20
31528;BMP280;10206;48.012;10.030;2022-07-23T12:27:42;95111.34;;;28.36
31528;BMP280;10206;48.012;10.030;2022-07-23T12:30:23;95103.66;;;28.41
31528;BMP280;10206;48.012;10.030;2022-07-23T12:32:52;95111.72;;;28.06
31528;BMP280;10206;48.012;10.030;2022-07-23T12:35:20;95099.63;;;28.60
31528;BMP280;10206;48.012;10.030;2022-07-23T12:37:49;95107.34;;;28.57
31528;BMP280;10206;48.012;10.030;2022-07-23T12:43:07;95110.41;;;28.14
31528;BMP280;10206;48.012;10.030;2022-07-23T12:48:30;95111.94;;;28.27
31528;BMP280;10206;48.012;10.030;2022-07-23T12:51:08;95104.97;;;28.30
31528;BMP280;10206;48.012;10.030;2022-07-23T12:53:39;95108.00;;;28.56
31528;BMP280;10206;48.012;10.030;2022-07-23T12:56:35;95100.34;;;28.62
31528;BMP280;10206;48.012;10.030;2022-07-23T12:59:10;95106.75;;;28.71
31528;BMP280;10206;48.012;10.030;2022-07-23T13:01:38;95100.03;;;29.10
31528;BMP280;10206;48.012;10.030;2022-07-23T13:04:06;95101.31;;;28.93
31528;BMP280;10206;48.012;10.030;2022-07-23T13:09:08;95106.50;;;28.45
31528;BMP280;10206;48.012;10.030;2022-07-23T13:11:35;95098.34;;;28.03
31528;BMP280;10206;48.012;10.030;2022-07-23T13:14:02;95103.91;;;27.99
31528;BMP280;10206;48.012;10.030;2022-07-23T13:16:29;95105.34;;;28.00
31528;BMP280;10206;48.012;10.030;2022-07-23T13:18:57;95104.50;;;27.87
31528;BMP280;10206;48.012;10.030;2022-07-23T13:21:23;95105.03;;;27.74
31528;BMP280;10206;48.012;10.030;2022-07-23T13:23:50;95108.88;;;28.02
31528;BMP280;10206;48.012;10.030;2022-07-23T13:26:17;95108.78;;;27.94
31528;BMP280;10206;48.012;10.030;2022-07-23T13:28:43;95111.13;;;28.14
31528;BMP280;10206;48.012;10.030;2022-07-23T13:31:10;95115.00;;;27.85
31528;BMP280;10206;48.012;10.030;2022-07-23T13:33:36;95096.34;;;27.54
31528;BMP280;10206;48.012;10.030;2022-07-23T13:36:02;95105.06;;;28.40
31528;BMP280;10206;48.012;10.030;2022-07-23T13:38:29;95092.56;;;28.55
31528;BMP280;10206;48.012;10.030;2022-07-23T13:40:55;95099.75;;;28.74
31528;BMP280;10206;48.012;10.030;2022-07-23T13:43:23;95094.25;;;28.88
31528;BMP280;10206;48.012;10.030;2022-07-23T13:45:50;95092.66;;;28.67
31528;BMP280;10206;48.012;10.030;2022-07-23T13:48:18;95081.47;;;28.73
31528;BMP280;10206;48.012;10.030;2022-07-23T13:50:45;95083.84;;;29.06
31528;BMP280;10206;48.012;10.030;2022-07-23T13:53:13;95085.19;;;28.97
31528;BMP280;10206;48.012;10.030;2022-07-23T13:55:40;95080.84;;;28.80
31528;BMP280;10206;48.012;10.030;2022-07-23T13:58:08;95081.34;;;28.57
31528;BMP280;10206;48.012;10.030;2022-07-23T14:00:37;95075.25;;;28.86
31528;BMP280;10206;48.012;10.030;2022-07-23T14:03:03;95079.59;;;29.03
31528;BMP280;10206;48.012;10.030;2022-07-23T14:05:30;95071.81;;;28.94
31528;BMP280;10206;48.012;10.030;2022-07-23T14:07:57;95075.91;;;28.79
31528;BMP280;10206;48.012;10.030;2022-07-23T14:10:24;95075.38;;;29.04
31528;BMP280;10206;48.012;10.030;2022-07-23T14:12:51;95072.72;;;29.30
31528;BMP280;10206;48.012;10.030;2022-07-23T14:15:19;95068.59;;;29.47
31528;BMP280;10206;48.012;10.030;2022-07-23T14:17:45;95062.28;;;29.53
31528;BMP280;10206;48.012;10.030;2022-07-23T14:20:13;95068.00;;;29.65
31528;BMP280;10206;48.012;10.030;2022-07-23T14:22:40;95066.66;;;29.88
31528;BMP280;10206;48.012;10.030;2022-07-23T14:25:07;95064.50;;;29.78
31528;BMP280;10206;48.012;10.030;2022-07-23T14:27:33;95059.66;;;30.05
31528;BMP280;10206;48.012;10.030;2022-07-23T14:30:00;95062.47;;;30.23
31528;BMP280;10206;48.012;10.030;2022-07-23T14:32:26;95062.44;;;30.07
31528;BMP280;10206;48.012;10.030;2022-07-23T14:34:52;95056.88;;;30.25
31528;BMP280;10206;48.012;10.030;2022-07-23T14:37:18;95061.09;;;30.30
31528;BMP280;10206;48.012;10.030;2022-07-23T14:39:45;95066.72;;;30.26
31528;BMP280;10206;48.012;10.030;2022-07-23T14:42:12;95062.44;;;30.07
31528;BMP280;10206;48.012;10.030;2022-07-23T14:44:38;95060.22;;;29.63